In Rescue
 
Open Full Screen Window  High Contrast Mode
Wind Gusting 00 knots
12
November 29, 2022 9:03 AM CST
Weather Information
Wind Direction
  170 °
Wind Speed
  12 kt (14 mph)
Wind Gust
  00 kt (0 mph)
Altimeter
29.60 in
Visibility
10 SM
Temperature
-10° C
14° F
Dewpoint
-12° C
10° F
Humidity
85%
1hr Rain Fall
00.00 in.
24hr Rain Fall
00.00 in.
Sky Condition
Broken @ 2,700 ft
MVFR

METAR KHCO 291503Z AUTO 17012KT 10SM BKN027 M10/M12 A2960 RMK AO2

FAA Disclaimer: The data displayed is for advisory purposes only and is not to be used for flight planning or operations.